Site Information

Site ID:
SR-0023
Creek:
Saluda River
HUC-8:
03050109 - Saluda
County:
Greenville
City:
Greenville
Latitude:
34.8036
Logitude:
-82.4706
Date Added:
10/20/2018
Group(s):

RiverHacks

Monitoring Events

# of Monitoring Events:
44
Earliest Monitoring Event:
10/24/2015 12:00 AM
Most Recent Monitoring Event:
01/27/2019 11:00 AM

Site Images

Upstream Photo Upstream Photo 08/10/2017 8:11 PM
Additional Photo Additional Photo 08/10/2017 8:11 PM

Trend Graphs

Select two values to compare in the graph below.

 
To use this data in MS Excel, simply select the data you want to copy; with selection copied, hit Ctrl/Cmd-C; place your cursor in a cell in Excel; right click your mouse and select Paste Special; select Text in the Paste options. All data will download into separate columns.
Date E. coli (cfu/100ml) pH (Standard Unit) Conductivity (μS/cm) Water Temp (°C) Air Temp (°C) DO (mg/L (ppm)) Macro Rating Habitat Rating
01/27/2019 11:00 AM N/A 6.40 14.00 8.00 6.00 N/A Not available Not Available
12/21/2018 12:59 PM N/A 6.40 13.00 10.00 11.00 N/A Not available Not Available
11/11/2018 7:52 PM N/A 6.50 17.00 15.00 17.00 N/A Not available Not Available
10/20/2018 10:30 AM N/A 6.50 18.00 19.00 20.00 N/A Not available Not Available
09/28/2018 9:45 AM 133.33 7.06 40.00 22.00 23.00 4.35 Not available Not Available
09/05/2018 7:57 AM N/A 6.40 22.00 24.00 23.00 N/A Not available Not Available
08/31/2018 11:10 AM 266.67 7.15 41.00 24.00 28.00 7.60 Not available Not Available
08/14/2018 8:22 PM N/A 6.30 23.00 13.00 21.00 N/A Not available Not Available
07/30/2018 10:15 AM 300.00 7.04 35.00 24.00 24.00 6.35 Not available Not Available
07/12/2018 7:30 AM N/A 6.60 19.00 25.00 25.00 N/A Not available Not Available
06/26/2018 10:30 AM N/A 7.08 35.00 25.00 30.00 7.10 Not available Not Available
06/14/2018 2:52 PM N/A 6.45 19.00 22.00 23.00 0.00 Not available Not Available
05/10/2018 12:34 PM N/A 6.50 20.00 19.00 19.00 0.00 Not available Not Available
04/14/2018 9:39 PM N/A 6.40 20.00 13.00 11.00 0.00 Not available Not Available
03/25/2018 4:10 PM N/A 6.60 19.00 14.00 17.00 0.00 Not available Not Available
02/22/2018 1:45 PM N/A 6.40 16.00 16.00 20.00 0.00 Not available Not Available
01/23/2018 7:00 AM N/A 6.50 27.00 10.00 15.00 0.00 Not available Not Available
12/20/2017 7:34 PM N/A 6.60 31.00 8.00 9.00 0.00 Not available Not Available
11/16/2017 7:00 AM N/A 6.50 30.00 10.00 6.00 0.00 Not available Not Available
10/14/2017 9:30 PM N/A 6.40 18.00 23.00 24.00 0.00 Not available Not Available
09/05/2017 9:28 PM N/A 6.50 25.00 22.00 20.00 0.00 Not available Not Available
08/10/2017 8:11 PM N/A 6.40 21.00 25.00 23.00 0.00 Not available Not Available
07/13/2017 2:48 PM N/A 6.60 17.00 25.00 23.00 0.00 Not available Not Available
06/08/2017 12:00 AM N/A 0.00 0.00 0.00 0.00 0.00 Not available Not Available
05/25/2017 12:00 AM N/A 0.00 0.00 0.00 0.00 0.00 Not available Not Available
04/27/2017 12:00 AM N/A 0.00 0.00 0.00 0.00 0.00 Not available Not Available
03/17/2017 12:00 AM N/A 0.00 0.00 0.00 0.00 0.00 Not available Not Available
02/17/2017 12:00 AM N/A 6.60 0.00 0.00 5.00 0.00 Not available Not Available
01/14/2017 12:00 AM N/A 6.50 0.00 0.00 20.00 0.00 Not available Not Available
12/13/2016 12:00 AM N/A 6.60 0.00 0.00 8.00 0.00 Not available Not Available
11/22/2016 12:00 AM N/A 6.40 0.00 0.00 1.00 0.00 Not available Not Available
10/13/2016 12:00 AM N/A 6.60 0.00 0.00 11.00 0.00 Not available Not Available
09/15/2016 12:00 AM N/A 6.60 0.00 0.00 21.00 0.00 Not available Not Available
08/19/2016 12:00 AM N/A 6.50 0.00 0.00 23.00 0.00 Not available Not Available
07/15/2016 12:00 AM N/A 6.60 0.00 0.00 23.00 0.00 Not available Not Available
06/17/2016 12:00 AM N/A 6.50 0.00 0.00 24.00 0.00 Not available Not Available
05/21/2016 12:00 AM N/A 6.45 0.00 0.00 23.00 0.00 Not available Not Available
04/21/2016 12:00 AM N/A 6.50 0.00 0.00 17.00 0.00 Not available Not Available
03/18/2016 12:00 AM N/A 6.40 0.00 0.00 10.00 0.00 Not available Not Available
02/21/2016 12:00 AM N/A 6.40 0.00 0.00 14.00 0.00 Not available Not Available
01/29/2016 12:00 AM N/A 6.40 0.00 0.00 1.00 0.00 Not available Not Available
01/08/2016 12:00 AM N/A 6.40 0.00 0.00 9.00 0.00 Not available Not Available
11/25/2015 12:00 AM N/A 6.50 0.00 0.00 7.00 0.00 Not available Not Available
10/24/2015 12:00 AM N/A 6.80 0.00 0.00 21.00 0.00 Not available Not Available